createdAt,value
2019-03-29T00:00:09.330Z,14.50
2019-03-29T00:02:37.865Z,14.40
2019-03-29T00:05:06.391Z,14.40
2019-03-29T00:07:39.966Z,14.40
2019-03-29T00:10:06.167Z,14.30
2019-03-29T00:12:34.911Z,14.40
2019-03-29T00:15:03.644Z,14.40
2019-03-29T00:17:32.171Z,14.40
2019-03-29T00:20:00.857Z,14.30
2019-03-29T00:22:29.350Z,14.30
2019-03-29T00:24:57.826Z,14.30
2019-03-29T00:27:26.346Z,14.30
2019-03-29T00:29:55.286Z,14.20
2019-03-29T00:32:24.490Z,14.30
2019-03-29T00:34:53.271Z,14.30
2019-03-29T00:37:21.733Z,14.20
2019-03-29T00:39:50.334Z,14.20
2019-03-29T00:42:18.840Z,14.20
2019-03-29T00:44:47.394Z,14.20
2019-03-29T00:47:15.964Z,14.10
2019-03-29T00:49:44.664Z,14.10
2019-03-29T00:52:13.243Z,14.10
2019-03-29T00:54:41.926Z,14.10
2019-03-29T00:57:10.612Z,14.00
2019-03-29T00:59:39.305Z,13.90
2019-03-29T01:02:07.976Z,13.80
2019-03-29T01:04:36.516Z,13.80
2019-03-29T01:07:05.221Z,13.80
2019-03-29T01:09:33.806Z,13.70
2019-03-29T01:12:02.341Z,13.60
2019-03-29T01:14:30.915Z,13.70
2019-03-29T01:16:59.474Z,13.60
2019-03-29T01:19:28.070Z,13.60
2019-03-29T01:21:56.625Z,13.60
2019-03-29T01:24:25.319Z,13.60
2019-03-29T01:26:53.791Z,13.70
2019-03-29T01:29:22.373Z,13.70
2019-03-29T01:31:51.169Z,13.70
2019-03-29T01:34:19.855Z,13.60
2019-03-29T01:36:48.434Z,13.60
2019-03-29T01:39:17.244Z,13.60
2019-03-29T01:41:45.705Z,13.60
2019-03-29T01:44:14.190Z,13.60
2019-03-29T01:46:42.875Z,13.60
2019-03-29T01:49:11.559Z,13.60
2019-03-29T01:51:40.345Z,13.50
2019-03-29T01:54:08.884Z,13.50
2019-03-29T01:56:37.409Z,13.50
2019-03-29T01:59:05.951Z,13.50
2019-03-29T02:01:34.502Z,13.40
2019-03-29T02:04:05.818Z,13.40
2019-03-29T02:06:33.228Z,13.40
2019-03-29T02:09:01.706Z,13.30
2019-03-29T02:11:30.290Z,13.40
2019-03-29T02:13:58.773Z,13.40
2019-03-29T02:16:27.283Z,13.40
2019-03-29T02:18:55.839Z,13.40
2019-03-29T02:21:24.707Z,13.40
2019-03-29T02:23:53.271Z,13.40
2019-03-29T02:26:21.793Z,13.40
2019-03-29T02:28:50.289Z,13.50
2019-03-29T02:31:18.786Z,13.50
2019-03-29T02:33:48.564Z,13.50
2019-03-29T02:36:17.199Z,13.50
2019-03-29T02:38:54.972Z,13.50
2019-03-29T02:41:15.850Z,13.50
2019-03-29T02:43:44.397Z,13.50
2019-03-29T02:46:12.875Z,13.50
2019-03-29T02:48:41.383Z,13.50
2019-03-29T02:51:09.916Z,13.50
2019-03-29T02:53:38.483Z,13.50
2019-03-29T02:56:07.264Z,13.50
2019-03-29T02:58:35.956Z,13.50
2019-03-29T03:01:04.479Z,13.60
2019-03-29T03:03:32.931Z,13.60
2019-03-29T03:06:01.438Z,13.60
2019-03-29T03:08:32.938Z,13.60
2019-03-29T03:11:00.406Z,13.60
2019-03-29T03:13:29.082Z,13.50
2019-03-29T03:15:57.664Z,13.50
2019-03-29T03:18:26.248Z,13.50
2019-03-29T03:20:54.739Z,13.40
2019-03-29T03:23:23.200Z,13.50
2019-03-29T03:25:51.892Z,13.50
2019-03-29T03:28:20.575Z,13.40
2019-03-29T03:30:49.157Z,13.40
2019-03-29T03:33:17.948Z,13.40
2019-03-29T03:35:46.433Z,13.30
2019-03-29T03:38:15.109Z,13.30
2019-03-29T03:40:43.793Z,13.20
2019-03-29T03:43:12.578Z,13.20
2019-03-29T03:45:41.187Z,13.20
2019-03-29T03:48:09.729Z,13.20
2019-03-29T03:50:39.339Z,13.20
2019-03-29T03:53:08.620Z,13.20
2019-03-29T03:55:38.755Z,13.20
2019-03-29T03:58:08.047Z,13.10
2019-03-29T04:00:48.528Z,13.10
2019-03-29T04:03:17.219Z,13.10
2019-03-29T04:05:45.898Z,13.00
2019-03-29T04:08:14.397Z,13.10
2019-03-29T04:10:42.951Z,13.00
2019-03-29T04:13:11.534Z,13.10
2019-03-29T04:15:40.222Z,13.00
2019-03-29T04:18:08.717Z,13.10
2019-03-29T04:20:37.193Z,13.10
2019-03-29T04:23:05.762Z,13.00
2019-03-29T04:25:34.853Z,13.00
2019-03-29T04:28:03.539Z,13.10
2019-03-29T04:30:32.109Z,13.00
2019-03-29T04:33:00.603Z,13.00
2019-03-29T04:35:29.130Z,13.00
2019-03-29T04:37:57.675Z,13.00
2019-03-29T04:40:26.201Z,13.00
2019-03-29T04:42:55.035Z,13.00
2019-03-29T04:45:23.718Z,13.10
2019-03-29T04:47:52.401Z,13.00
2019-03-29T04:50:21.093Z,13.00
2019-03-29T04:52:49.775Z,13.10
2019-03-29T04:55:18.558Z,13.10
2019-03-29T04:57:47.105Z,13.10
2019-03-29T05:00:16.237Z,13.10
2019-03-29T05:02:44.921Z,13.20
2019-03-29T05:05:13.495Z,13.10
2019-03-29T05:07:42.168Z,13.20
2019-03-29T05:10:20.991Z,13.20
2019-03-29T05:12:40.892Z,13.20
2019-03-29T05:15:09.427Z,13.20
2019-03-29T05:17:37.935Z,13.20
2019-03-29T05:20:07.236Z,13.20
2019-03-29T05:22:35.928Z,13.10
2019-03-29T05:25:05.430Z,13.20
2019-03-29T05:27:33.909Z,13.10
2019-03-29T05:30:02.484Z,13.10
2019-03-29T05:32:31.078Z,13.10
2019-03-29T05:34:59.594Z,13.10
2019-03-29T05:37:28.140Z,13.10
2019-03-29T05:39:56.623Z,13.10
2019-03-29T05:42:25.316Z,13.10
2019-03-29T05:44:53.800Z,13.10
2019-03-29T05:47:22.376Z,13.10
2019-03-29T05:49:50.909Z,13.20
2019-03-29T05:52:19.505Z,13.10
2019-03-29T05:54:48.076Z,13.20
2019-03-29T05:57:16.784Z,13.10
2019-03-29T05:59:45.265Z,13.10
2019-03-29T06:02:13.970Z,13.10
2019-03-29T06:04:42.514Z,13.10
2019-03-29T06:07:11.027Z,13.10
2019-03-29T06:09:39.710Z,13.10
2019-03-29T06:12:08.416Z,13.10
2019-03-29T06:14:36.870Z,13.20
2019-03-29T06:17:05.428Z,13.10
2019-03-29T06:19:33.984Z,13.10
2019-03-29T06:22:02.528Z,13.20
2019-03-29T06:24:31.379Z,13.30
2019-03-29T06:27:00.094Z,13.20
2019-03-29T06:29:28.573Z,13.30
2019-03-29T06:31:57.142Z,13.30
2019-03-29T06:34:25.942Z,13.40
2019-03-29T06:36:54.541Z,13.40
2019-03-29T06:39:23.023Z,13.50
2019-03-29T06:41:51.503Z,13.60
2019-03-29T06:44:20.018Z,13.60
2019-03-29T06:46:48.593Z,13.70
2019-03-29T06:49:17.109Z,13.70
2019-03-29T06:51:45.807Z,13.80
2019-03-29T06:54:14.452Z,13.90
2019-03-29T06:56:43.129Z,13.90
2019-03-29T06:59:11.608Z,14.00
2019-03-29T07:01:40.103Z,14.00
2019-03-29T07:04:08.644Z,14.10
2019-03-29T07:06:37.128Z,14.10
2019-03-29T07:09:06.601Z,14.20
2019-03-29T07:11:35.070Z,14.20
2019-03-29T07:14:03.648Z,14.30
2019-03-29T07:16:32.311Z,14.30
2019-03-29T07:19:00.888Z,14.40
2019-03-29T07:21:29.524Z,14.40
2019-03-29T07:23:58.076Z,14.50
2019-03-29T07:26:26.625Z,14.60
2019-03-29T07:28:55.248Z,14.50
2019-03-29T07:31:23.838Z,14.50
2019-03-29T07:33:52.307Z,14.60
2019-03-29T07:36:20.922Z,14.60
2019-03-29T07:38:49.596Z,14.70
2019-03-29T07:41:31.101Z,14.70
2019-03-29T07:43:48.541Z,14.70
2019-03-29T07:46:18.307Z,14.90
2019-03-29T07:48:46.951Z,14.90
2019-03-29T07:51:15.650Z,14.90
2019-03-29T07:53:45.109Z,15.10
2019-03-29T07:56:13.849Z,15.10
2019-03-29T07:58:42.472Z,15.10
2019-03-29T08:01:11.132Z,15.30
2019-03-29T08:03:39.816Z,15.40
2019-03-29T08:06:08.554Z,15.50
2019-03-29T08:08:37.180Z,15.50
2019-03-29T08:11:05.868Z,15.60
2019-03-29T08:13:34.526Z,15.70
2019-03-29T08:16:06.355Z,15.90
2019-03-29T08:18:33.464Z,16.50
2019-03-29T08:21:02.257Z,17.00
2019-03-29T08:23:30.819Z,17.60
2019-03-29T08:25:59.610Z,18.10
2019-03-29T08:28:30.038Z,18.60
2019-03-29T08:30:58.724Z,19.10
2019-03-29T08:33:27.235Z,19.40
2019-03-29T08:35:55.888Z,19.70
2019-03-29T08:38:24.883Z,20.00
2019-03-29T08:40:53.609Z,20.30
2019-03-29T08:43:22.241Z,20.50
2019-03-29T08:45:50.943Z,20.70
2019-03-29T08:48:19.618Z,20.90
2019-03-29T08:50:48.203Z,21.20
2019-03-29T08:53:16.989Z,21.50
2019-03-29T08:55:46.451Z,22.00
2019-03-29T08:58:15.303Z,22.20
2019-03-29T09:00:43.973Z,22.60
2019-03-29T09:03:12.644Z,22.80
2019-03-29T09:05:41.146Z,23.20
2019-03-29T09:08:09.752Z,23.40
2019-03-29T09:10:38.594Z,23.60
2019-03-29T09:13:07.308Z,23.80
2019-03-29T09:15:36.065Z,24.00
2019-03-29T09:18:04.658Z,24.10
2019-03-29T09:20:34.665Z,24.10
2019-03-29T09:23:05.296Z,24.40
2019-03-29T09:25:33.879Z,24.60
2019-03-29T09:28:02.665Z,24.70
2019-03-29T09:30:32.417Z,24.90
2019-03-29T09:33:00.914Z,24.90
2019-03-29T09:35:29.794Z,25.00
2019-03-29T09:37:58.480Z,25.30
2019-03-29T09:40:27.275Z,25.30
2019-03-29T09:43:07.035Z,25.20
2019-03-29T09:45:26.580Z,25.30
2019-03-29T09:47:56.042Z,25.40
2019-03-29T09:50:24.679Z,25.30
2019-03-29T09:52:54.284Z,25.10
2019-03-29T09:55:22.767Z,24.60
2019-03-29T09:57:51.477Z,23.90
2019-03-29T10:00:23.202Z,23.20
2019-03-29T10:02:51.018Z,22.70
2019-03-29T10:05:20.477Z,22.20
2019-03-29T10:07:49.258Z,21.70
2019-03-29T10:10:17.903Z,21.40
2019-03-29T10:12:46.572Z,21.00
2019-03-29T10:15:15.220Z,20.70
2019-03-29T10:17:43.908Z,20.60
2019-03-29T10:20:12.617Z,20.40
2019-03-29T10:22:41.236Z,20.00
2019-03-29T10:25:19.355Z,20.10
2019-03-29T10:27:40.472Z,20.00
2019-03-29T10:30:09.408Z,19.70
2019-03-29T10:32:38.088Z,19.80
2019-03-29T10:35:07.585Z,19.80
2019-03-29T10:37:36.395Z,19.80
2019-03-29T10:40:06.703Z,19.70
2019-03-29T10:42:35.315Z,19.60
2019-03-29T10:45:04.354Z,19.50
2019-03-29T10:47:43.098Z,19.40
2019-03-29T10:50:03.316Z,19.30
2019-03-29T10:52:31.959Z,19.20
2019-03-29T10:55:00.509Z,19.40
2019-03-29T10:57:29.013Z,19.40
2019-03-29T10:59:57.614Z,19.50
2019-03-29T11:02:26.183Z,19.40
2019-03-29T11:04:54.827Z,19.60
2019-03-29T11:07:23.465Z,19.70
2019-03-29T11:09:52.086Z,19.70
2019-03-29T11:12:20.747Z,19.60
2019-03-29T11:14:49.515Z,19.70
2019-03-29T11:17:18.004Z,19.80
2019-03-29T11:19:46.684Z,19.90
2019-03-29T11:22:15.450Z,19.90
2019-03-29T11:24:44.058Z,20.00
2019-03-29T11:27:12.612Z,20.10
2019-03-29T11:29:41.419Z,20.10
2019-03-29T11:32:10.639Z,20.40
2019-03-29T11:34:39.350Z,21.00
2019-03-29T11:37:07.963Z,22.10
2019-03-29T11:39:36.491Z,23.30
2019-03-29T11:42:05.256Z,24.60
2019-03-29T11:44:34.132Z,25.70
2019-03-29T11:47:02.726Z,26.20
2019-03-29T11:49:31.319Z,26.80
2019-03-29T11:52:00.211Z,27.10
2019-03-29T11:54:29.006Z,27.30
2019-03-29T11:56:57.625Z,27.20
2019-03-29T11:59:26.118Z,27.00
2019-03-29T12:01:54.716Z,26.90
2019-03-29T12:04:23.272Z,27.30
2019-03-29T12:06:51.708Z,27.40
2019-03-29T12:09:20.400Z,27.10
2019-03-29T12:11:49.055Z,26.50
2019-03-29T12:14:17.681Z,25.80
2019-03-29T12:16:46.260Z,25.10
2019-03-29T12:19:14.875Z,24.40
2019-03-29T12:21:43.528Z,23.80
2019-03-29T12:24:12.056Z,23.20
2019-03-29T12:26:40.755Z,22.80
2019-03-29T12:29:09.337Z,22.40
2019-03-29T12:31:37.980Z,22.00
2019-03-29T12:34:06.628Z,21.80
2019-03-29T12:36:35.096Z,21.70
2019-03-29T12:39:05.468Z,21.70
2019-03-29T12:41:34.086Z,21.60
2019-03-29T12:44:02.716Z,21.50
2019-03-29T12:46:32.468Z,21.60
2019-03-29T12:49:01.587Z,21.70
2019-03-29T12:51:30.163Z,21.60
2019-03-29T12:53:59.063Z,21.40
2019-03-29T12:56:27.682Z,21.30
2019-03-29T12:58:56.188Z,21.10
2019-03-29T13:01:38.500Z,21.00
2019-03-29T13:03:55.325Z,21.10
2019-03-29T13:06:24.127Z,21.00
2019-03-29T13:08:52.798Z,20.90
2019-03-29T13:11:21.384Z,20.80
2019-03-29T13:13:49.941Z,20.80
2019-03-29T13:16:18.559Z,21.00
2019-03-29T13:18:47.089Z,20.90
2019-03-29T13:21:15.832Z,20.90
2019-03-29T13:23:44.390Z,20.80
2019-03-29T13:26:12.983Z,20.90
2019-03-29T13:28:41.761Z,21.00
2019-03-29T13:31:14.839Z,21.10
2019-03-29T13:33:43.485Z,21.10
2019-03-29T13:36:12.014Z,21.00
2019-03-29T13:38:40.805Z,21.00
2019-03-29T13:41:10.002Z,21.20
2019-03-29T13:43:38.682Z,21.10
2019-03-29T13:46:07.317Z,21.00
2019-03-29T13:48:36.155Z,21.00
2019-03-29T13:51:04.716Z,21.00
2019-03-29T13:53:33.401Z,21.00
2019-03-29T13:56:02.017Z,21.30
2019-03-29T13:58:30.737Z,21.30
2019-03-29T14:00:59.625Z,21.40
2019-03-29T14:03:28.192Z,21.40
2019-03-29T14:05:56.820Z,21.40
2019-03-29T14:08:25.444Z,21.30
2019-03-29T14:10:53.996Z,21.10
2019-03-29T14:13:22.719Z,21.10
2019-03-29T14:15:51.215Z,21.30
2019-03-29T14:18:19.858Z,21.40
2019-03-29T14:20:48.505Z,21.20
2019-03-29T14:23:17.242Z,21.20
2019-03-29T14:25:45.916Z,21.00
2019-03-29T14:28:14.705Z,21.10
2019-03-29T14:30:43.698Z,21.30
2019-03-29T14:33:12.224Z,21.00
2019-03-29T14:35:40.772Z,21.10
2019-03-29T14:38:09.416Z,21.00
2019-03-29T14:40:38.644Z,21.10
2019-03-29T14:43:07.183Z,21.30
2019-03-29T14:45:35.742Z,21.20
2019-03-29T14:48:04.380Z,21.00
2019-03-29T14:50:33.071Z,21.10
2019-03-29T14:53:01.661Z,21.30
2019-03-29T14:55:30.553Z,21.20
2019-03-29T14:57:59.484Z,21.30
2019-03-29T15:00:37.280Z,21.50
2019-03-29T15:03:06.013Z,21.90
2019-03-29T15:05:34.721Z,22.50
2019-03-29T15:08:03.428Z,23.30
2019-03-29T15:10:31.969Z,24.10
2019-03-29T15:13:00.586Z,24.80
2019-03-29T15:15:29.268Z,25.10
2019-03-29T15:17:57.758Z,25.20
2019-03-29T15:20:26.356Z,25.30
2019-03-29T15:22:55.017Z,25.40
2019-03-29T15:25:23.495Z,25.60
2019-03-29T15:27:52.083Z,25.80
2019-03-29T15:30:20.742Z,26.20
2019-03-29T15:32:49.337Z,26.50
2019-03-29T15:35:20.786Z,26.80
2019-03-29T15:37:48.632Z,26.80
2019-03-29T15:40:17.596Z,26.60
2019-03-29T15:42:46.175Z,26.70
2019-03-29T15:45:20.798Z,26.50
2019-03-29T15:47:44.996Z,26.50
2019-03-29T15:50:13.622Z,26.60
2019-03-29T15:52:42.189Z,26.60
2019-03-29T15:55:11.484Z,26.70
2019-03-29T15:57:40.205Z,26.60
2019-03-29T16:00:10.410Z,26.60
2019-03-29T16:02:39.104Z,26.70
2019-03-29T16:05:07.624Z,26.60
2019-03-29T16:07:38.000Z,26.20
2019-03-29T16:10:06.732Z,25.80
2019-03-29T16:12:35.224Z,25.40
2019-03-29T16:15:04.505Z,25.00
2019-03-29T16:17:33.212Z,24.60
2019-03-29T16:20:01.860Z,24.20
2019-03-29T16:22:30.384Z,23.80
2019-03-29T16:24:58.937Z,23.60
2019-03-29T16:27:27.450Z,23.30
2019-03-29T16:29:55.952Z,23.10
2019-03-29T16:32:24.466Z,22.90
2019-03-29T16:34:52.956Z,22.90
2019-03-29T16:37:21.537Z,22.80
2019-03-29T16:39:50.247Z,22.50
2019-03-29T16:42:21.004Z,22.50
2019-03-29T16:44:55.606Z,22.20
2019-03-29T16:47:24.239Z,22.20
2019-03-29T16:49:52.944Z,22.20
2019-03-29T16:52:21.781Z,22.20
2019-03-29T16:54:50.400Z,21.90
2019-03-29T16:57:19.087Z,21.90
2019-03-29T16:59:47.899Z,21.80
2019-03-29T17:02:16.609Z,21.80
2019-03-29T17:04:45.201Z,21.70
2019-03-29T17:07:13.847Z,21.60
2019-03-29T17:09:42.554Z,21.60
2019-03-29T17:12:11.468Z,21.70
2019-03-29T17:14:40.119Z,21.80
2019-03-29T17:17:08.755Z,21.80
2019-03-29T17:19:37.280Z,21.80
2019-03-29T17:22:05.754Z,21.70
2019-03-29T17:24:34.392Z,21.60
2019-03-29T17:27:03.145Z,21.50
2019-03-29T17:29:31.751Z,21.40
2019-03-29T17:32:00.237Z,21.40
2019-03-29T17:34:29.012Z,21.40
2019-03-29T17:36:57.724Z,21.30
2019-03-29T17:39:26.372Z,21.50
2019-03-29T17:41:54.977Z,21.50
2019-03-29T17:44:23.626Z,21.20
2019-03-29T17:46:52.209Z,21.10
2019-03-29T17:49:20.848Z,21.10
2019-03-29T17:51:49.361Z,21.20
2019-03-29T17:54:18.394Z,21.20
2019-03-29T17:56:47.204Z,21.30
2019-03-29T17:59:15.676Z,21.30
2019-03-29T18:01:44.531Z,21.30
2019-03-29T18:04:13.301Z,21.30
2019-03-29T18:06:42.096Z,21.20
2019-03-29T18:09:10.894Z,21.30
2019-03-29T18:11:39.780Z,21.20
2019-03-29T18:14:08.254Z,21.10
2019-03-29T18:16:37.036Z,21.00
2019-03-29T18:19:07.466Z,20.90
2019-03-29T18:21:36.258Z,21.00
2019-03-29T18:24:04.834Z,20.90
2019-03-29T18:26:33.506Z,20.90
2019-03-29T18:29:01.976Z,20.80
2019-03-29T18:31:30.568Z,20.80
2019-03-29T18:33:59.254Z,20.90
2019-03-29T18:36:27.720Z,20.80
2019-03-29T18:38:56.423Z,20.80
2019-03-29T18:41:24.974Z,20.80
2019-03-29T18:43:53.513Z,20.70
2019-03-29T18:46:22.096Z,20.70
2019-03-29T18:48:50.761Z,20.70
2019-03-29T18:51:19.305Z,20.60
2019-03-29T18:53:48.218Z,20.50
2019-03-29T18:56:16.796Z,20.50
2019-03-29T18:58:45.337Z,20.40
2019-03-29T19:01:14.021Z,20.40
2019-03-29T19:03:42.651Z,20.40
2019-03-29T19:06:11.282Z,20.40
2019-03-29T19:08:39.876Z,20.40
2019-03-29T19:11:08.499Z,20.30
2019-03-29T19:13:37.385Z,20.20
2019-03-29T19:16:06.131Z,20.30
2019-03-29T19:18:34.656Z,20.30
2019-03-29T19:21:03.341Z,20.20
2019-03-29T19:23:32.028Z,20.10
2019-03-29T19:26:00.647Z,20.10
2019-03-29T19:28:29.354Z,20.10
2019-03-29T19:30:57.940Z,20.00
2019-03-29T19:33:29.659Z,19.90
2019-03-29T19:35:58.468Z,19.90
2019-03-29T19:38:26.997Z,19.90
2019-03-29T19:40:55.477Z,19.90
2019-03-29T19:43:24.286Z,19.80
2019-03-29T19:45:52.959Z,19.80
2019-03-29T19:48:21.601Z,19.80
2019-03-29T19:50:50.169Z,19.80
2019-03-29T19:53:18.836Z,19.70
2019-03-29T19:55:47.641Z,19.70
2019-03-29T19:58:16.409Z,19.60
2019-03-29T20:00:45.076Z,19.50
2019-03-29T20:03:13.559Z,19.50
2019-03-29T20:05:42.137Z,19.40
2019-03-29T20:08:10.659Z,19.30
2019-03-29T20:10:39.152Z,19.40
2019-03-29T20:13:07.637Z,19.30
2019-03-29T20:15:36.224Z,19.30
2019-03-29T20:18:04.971Z,19.30
2019-03-29T20:20:33.675Z,19.30
2019-03-29T20:23:02.184Z,19.20
2019-03-29T20:25:30.664Z,19.20
2019-03-29T20:27:59.345Z,19.20
2019-03-29T20:30:27.927Z,19.10
2019-03-29T20:32:56.481Z,19.00
2019-03-29T20:35:25.164Z,19.10
2019-03-29T20:37:53.728Z,19.10
2019-03-29T20:40:22.260Z,19.00
2019-03-29T20:42:50.946Z,19.00
2019-03-29T20:45:19.582Z,19.00
2019-03-29T20:47:51.571Z,19.00
2019-03-29T20:50:18.347Z,19.10
2019-03-29T20:52:46.952Z,19.00
2019-03-29T20:55:15.774Z,19.00
2019-03-29T20:57:44.289Z,19.00
2019-03-29T21:00:13.646Z,18.90
2019-03-29T21:02:42.140Z,18.90
2019-03-29T21:05:10.815Z,18.90
2019-03-29T21:07:39.451Z,18.80
2019-03-29T21:10:08.025Z,18.90
2019-03-29T21:12:36.583Z,18.80
2019-03-29T21:15:05.868Z,18.80
2019-03-29T21:17:34.482Z,18.80
2019-03-29T21:20:03.169Z,18.70
2019-03-29T21:22:32.061Z,18.70
2019-03-29T21:25:00.651Z,18.60
2019-03-29T21:27:29.437Z,18.60
2019-03-29T21:29:58.145Z,18.60
2019-03-29T21:32:26.903Z,18.50
2019-03-29T21:34:55.497Z,18.50
2019-03-29T21:37:24.166Z,18.50
2019-03-29T21:39:52.842Z,18.40
2019-03-29T21:42:21.323Z,18.30
2019-03-29T21:44:50.016Z,18.30
2019-03-29T21:47:18.800Z,18.20
2019-03-29T21:49:47.521Z,18.30
2019-03-29T21:52:16.143Z,18.30
2019-03-29T21:54:44.892Z,18.30
2019-03-29T21:57:13.480Z,18.30
2019-03-29T21:59:42.126Z,18.20
2019-03-29T22:02:10.696Z,18.10
2019-03-29T22:04:39.269Z,18.00
2019-03-29T22:07:07.960Z,18.00
2019-03-29T22:09:37.419Z,18.00
2019-03-29T22:12:06.246Z,18.10
2019-03-29T22:14:34.976Z,18.10
2019-03-29T22:17:03.506Z,18.00
2019-03-29T22:19:32.004Z,18.00
2019-03-29T22:22:00.635Z,17.90
2019-03-29T22:24:29.296Z,17.90
2019-03-29T22:26:57.763Z,18.00
2019-03-29T22:29:26.337Z,18.10
2019-03-29T22:31:54.832Z,18.00
2019-03-29T22:34:23.403Z,18.00
2019-03-29T22:36:51.992Z,18.00
2019-03-29T22:39:20.535Z,18.00
2019-03-29T22:41:49.009Z,17.90
2019-03-29T22:44:17.745Z,17.90
2019-03-29T22:46:46.624Z,17.90
2019-03-29T22:49:15.422Z,17.90
2019-03-29T22:51:44.306Z,17.80
2019-03-29T22:54:12.948Z,17.80
2019-03-29T22:56:41.769Z,17.80
2019-03-29T22:59:10.375Z,17.70
2019-03-29T23:01:41.489Z,17.70
2019-03-29T23:04:10.250Z,17.70
2019-03-29T23:06:38.961Z,17.60
2019-03-29T23:09:07.751Z,17.50
2019-03-29T23:11:36.561Z,17.50
2019-03-29T23:14:05.260Z,17.40
2019-03-29T23:16:34.118Z,17.50
2019-03-29T23:19:06.750Z,17.40
2019-03-29T23:21:33.231Z,17.40
2019-03-29T23:24:01.863Z,17.40
2019-03-29T23:26:30.494Z,17.20
2019-03-29T23:28:59.283Z,17.20
2019-03-29T23:31:28.070Z,17.30
2019-03-29T23:33:56.958Z,17.20
2019-03-29T23:36:25.647Z,17.20
2019-03-29T23:38:54.412Z,17.20
2019-03-29T23:41:23.007Z,17.30
2019-03-29T23:43:51.543Z,17.20
2019-03-29T23:46:20.154Z,17.20
2019-03-29T23:48:48.787Z,17.00
2019-03-29T23:51:17.279Z,17.00
2019-03-29T23:53:45.831Z,16.90
2019-03-29T23:56:14.402Z,16.80
2019-03-29T23:58:43.183Z,16.90
